sensor_id;sensor_type;location;lat;lon;timestamp;pressure;altitude;pressure_sealevel;temperature;humidity
56831;BME280;42713;42.676;23.352;2022-11-20T00:01:42;94047.00;;;14.14;69.93
56831;BME280;42713;42.676;23.352;2022-11-20T00:04:08;94073.03;;;14.15;72.43
56831;BME280;42713;42.676;23.352;2022-11-20T00:06:35;94086.00;;;14.12;72.97
56831;BME280;42713;42.676;23.352;2022-11-20T00:09:01;94081.72;;;14.16;73.92
56831;BME280;42713;42.676;23.352;2022-11-20T00:11:28;94080.66;;;14.17;73.89
56831;BME280;42713;42.676;23.352;2022-11-20T00:13:56;94084.34;;;14.16;73.85
56831;BME280;42713;42.676;23.352;2022-11-20T00:16:26;94090.97;;;14.13;74.50
56831;BME280;42713;42.676;23.352;2022-11-20T00:18:53;94095.72;;;14.11;74.79
56831;BME280;42713;42.676;23.352;2022-11-20T00:21:21;94098.66;;;14.10;73.67
56831;BME280;42713;42.676;23.352;2022-11-20T00:23:47;94079.66;;;14.13;73.86
56831;BME280;42713;42.676;23.352;2022-11-20T00:26:14;94060.94;;;14.14;74.25
56831;BME280;42713;42.676;23.352;2022-11-20T00:28:41;94070.13;;;14.17;73.40
56831;BME280;42713;42.676;23.352;2022-11-20T00:31:10;94086.38;;;14.24;74.30
56831;BME280;42713;42.676;23.352;2022-11-20T00:33:35;94065.06;;;14.21;74.26
56831;BME280;42713;42.676;23.352;2022-11-20T00:36:06;94068.50;;;14.21;72.57
56831;BME280;42713;42.676;23.352;2022-11-20T00:38:33;94054.50;;;14.26;71.48
56831;BME280;42713;42.676;23.352;2022-11-20T00:41:03;94061.00;;;14.34;70.55
56831;BME280;42713;42.676;23.352;2022-11-20T00:43:29;94052.50;;;14.37;70.75
56831;BME280;42713;42.676;23.352;2022-11-20T00:45:59;94082.34;;;14.32;70.96
56831;BME280;42713;42.676;23.352;2022-11-20T00:48:25;94067.03;;;14.34;71.91
56831;BME280;42713;42.676;23.352;2022-11-20T00:50:50;94088.06;;;14.39;71.89
56831;BME280;42713;42.676;23.352;2022-11-20T00:53:16;94069.34;;;14.41;71.18
56831;BME280;42713;42.676;23.352;2022-11-20T00:55:41;94105.16;;;14.42;70.28
56831;BME280;42713;42.676;23.352;2022-11-20T00:58:07;94072.75;;;14.41;68.95
56831;BME280;42713;42.676;23.352;2022-11-20T01:00:32;94069.72;;;14.53;67.50
56831;BME280;42713;42.676;23.352;2022-11-20T01:02:57;94041.94;;;14.61;68.39
56831;BME280;42713;42.676;23.352;2022-11-20T01:05:23;94051.59;;;14.71;65.12
56831;BME280;42713;42.676;23.352;2022-11-20T01:07:48;94071.53;;;14.77;66.22
56831;BME280;42713;42.676;23.352;2022-11-20T01:10:14;94087.09;;;14.78;66.04
56831;BME280;42713;42.676;23.352;2022-11-20T01:12:39;94059.88;;;14.83;65.08
56831;BME280;42713;42.676;23.352;2022-11-20T01:15:05;94059.50;;;14.90;65.30
56831;BME280;42713;42.676;23.352;2022-11-20T01:17:31;94049.38;;;14.97;64.13
56831;BME280;42713;42.676;23.352;2022-11-20T01:19:56;94051.72;;;14.99;64.36
56831;BME280;42713;42.676;23.352;2022-11-20T01:22:22;94029.00;;;15.03;63.35
56831;BME280;42713;42.676;23.352;2022-11-20T01:24:47;94037.41;;;15.05;62.88
56831;BME280;42713;42.676;23.352;2022-11-20T01:27:13;94008.16;;;15.20;60.35
56831;BME280;42713;42.676;23.352;2022-11-20T01:29:38;94022.16;;;15.35;60.53
56831;BME280;42713;42.676;23.352;2022-11-20T01:32:04;94036.56;;;15.43;60.88
56831;BME280;42713;42.676;23.352;2022-11-20T01:34:29;94031.69;;;15.50;60.80
56831;BME280;42713;42.676;23.352;2022-11-20T01:36:55;94043.53;;;15.52;60.96
56831;BME280;42713;42.676;23.352;2022-11-20T01:39:22;94009.13;;;15.57;61.52
56831;BME280;42713;42.676;23.352;2022-11-20T01:41:49;94029.16;;;15.59;61.45
56831;BME280;42713;42.676;23.352;2022-11-20T01:44:59;94016.84;;;15.54;62.66
56831;BME280;42713;42.676;23.352;2022-11-20T01:47:38;94025.06;;;15.52;62.60
56831;BME280;42713;42.676;23.352;2022-11-20T01:50:23;94002.06;;;15.53;62.58
56831;BME280;42713;42.676;23.352;2022-11-20T01:52:55;94015.56;;;15.51;62.49
56831;BME280;42713;42.676;23.352;2022-11-20T01:55:26;94014.78;;;15.51;62.35
56831;BME280;42713;42.676;23.352;2022-11-20T01:57:54;94016.72;;;15.45;61.55
56831;BME280;42713;42.676;23.352;2022-11-20T02:00:20;94000.00;;;15.50;59.68
56831;BME280;42713;42.676;23.352;2022-11-20T02:02:50;94014.09;;;15.59;58.98
56831;BME280;42713;42.676;23.352;2022-11-20T02:07:49;94020.09;;;15.79;59.39
56831;BME280;42713;42.676;23.352;2022-11-20T02:10:15;94003.09;;;15.71;60.10
56831;BME280;42713;42.676;23.352;2022-11-20T02:12:41;94002.69;;;15.78;60.63
56831;BME280;42713;42.676;23.352;2022-11-20T02:15:25;94024.91;;;15.77;60.57
56831;BME280;42713;42.676;23.352;2022-11-20T02:17:51;94032.81;;;15.77;60.69
56831;BME280;42713;42.676;23.352;2022-11-20T02:20:16;94036.59;;;15.70;61.14
56831;BME280;42713;42.676;23.352;2022-11-20T02:22:49;94023.81;;;15.78;58.35
56831;BME280;42713;42.676;23.352;2022-11-20T02:25:16;94028.00;;;15.79;59.70
56831;BME280;42713;42.676;23.352;2022-11-20T02:27:42;94031.44;;;15.79;59.93
56831;BME280;42713;42.676;23.352;2022-11-20T02:30:09;94027.03;;;15.75;60.48
56831;BME280;42713;42.676;23.352;2022-11-20T02:32:36;94005.63;;;15.76;59.93
56831;BME280;42713;42.676;23.352;2022-11-20T02:37:44;94031.94;;;15.81;60.40
56831;BME280;42713;42.676;23.352;2022-11-20T02:40:10;94043.59;;;15.80;60.39
56831;BME280;42713;42.676;23.352;2022-11-20T02:42:36;94051.00;;;15.78;60.18
56831;BME280;42713;42.676;23.352;2022-11-20T02:45:03;94025.09;;;15.80;58.88
56831;BME280;42713;42.676;23.352;2022-11-20T02:47:29;94072.31;;;15.82;58.02
56831;BME280;42713;42.676;23.352;2022-11-20T02:49:55;94059.16;;;15.96;57.95
56831;BME280;42713;42.676;23.352;2022-11-20T02:52:20;94056.91;;;16.03;57.61
56831;BME280;42713;42.676;23.352;2022-11-20T02:54:45;94046.06;;;16.05;58.01
56831;BME280;42713;42.676;23.352;2022-11-20T02:57:11;94048.59;;;16.10;58.13
56831;BME280;42713;42.676;23.352;2022-11-20T02:59:36;94054.09;;;16.13;57.93
56831;BME280;42713;42.676;23.352;2022-11-20T03:02:02;94070.13;;;16.17;58.09
56831;BME280;42713;42.676;23.352;2022-11-20T03:04:27;94063.19;;;16.21;58.49
56831;BME280;42713;42.676;23.352;2022-11-20T03:06:53;94099.81;;;16.28;57.97
56831;BME280;42713;42.676;23.352;2022-11-20T03:09:18;94086.09;;;16.40;57.14
56831;BME280;42713;42.676;23.352;2022-11-20T03:11:43;94072.09;;;16.39;57.58
56831;BME280;42713;42.676;23.352;2022-11-20T03:14:09;94069.47;;;16.39;57.57
56831;BME280;42713;42.676;23.352;2022-11-20T03:16:34;94082.25;;;16.46;57.79
56831;BME280;42713;42.676;23.352;2022-11-20T03:19:00;94076.88;;;16.51;57.56
56831;BME280;42713;42.676;23.352;2022-11-20T03:21:26;94081.97;;;16.47;57.89
56831;BME280;42713;42.676;23.352;2022-11-20T03:23:53;94090.78;;;16.57;57.00
56831;BME280;42713;42.676;23.352;2022-11-20T03:26:24;94094.13;;;16.62;56.67
56831;BME280;42713;42.676;23.352;2022-11-20T03:28:52;94085.00;;;16.55;57.11
56831;BME280;42713;42.676;23.352;2022-11-20T03:31:29;94084.03;;;16.51;57.06
56831;BME280;42713;42.676;23.352;2022-11-20T03:33:56;94095.09;;;16.53;56.91
56831;BME280;42713;42.676;23.352;2022-11-20T03:36:23;94124.47;;;16.65;56.28
56831;BME280;42713;42.676;23.352;2022-11-20T03:38:49;94093.50;;;16.65;56.12
56831;BME280;42713;42.676;23.352;2022-11-20T03:41:18;94089.50;;;16.68;56.59
56831;BME280;42713;42.676;23.352;2022-11-20T03:44:08;94089.78;;;16.67;57.03
56831;BME280;42713;42.676;23.352;2022-11-20T03:46:33;94106.44;;;16.67;56.95
56831;BME280;42713;42.676;23.352;2022-11-20T03:48:59;94111.25;;;16.65;57.30
56831;BME280;42713;42.676;23.352;2022-11-20T03:51:29;94094.88;;;16.63;57.45
56831;BME280;42713;42.676;23.352;2022-11-20T03:53:58;94099.69;;;16.61;57.32
56831;BME280;42713;42.676;23.352;2022-11-20T03:56:26;94094.19;;;16.57;57.27
56831;BME280;42713;42.676;23.352;2022-11-20T03:58:52;94097.66;;;16.58;56.78
56831;BME280;42713;42.676;23.352;2022-11-20T04:01:20;94089.03;;;16.52;57.29
56831;BME280;42713;42.676;23.352;2022-11-20T04:03:46;94111.63;;;16.58;57.14
56831;BME280;42713;42.676;23.352;2022-11-20T04:06:20;94099.97;;;16.59;56.79
56831;BME280;42713;42.676;23.352;2022-11-20T04:08:46;94114.47;;;16.62;56.58
56831;BME280;42713;42.676;23.352;2022-11-20T04:11:19;94104.88;;;16.66;56.12
56831;BME280;42713;42.676;23.352;2022-11-20T04:13:50;94101.94;;;16.68;55.82
56831;BME280;42713;42.676;23.352;2022-11-20T04:16:16;94097.72;;;16.67;56.35
56831;BME280;42713;42.676;23.352;2022-11-20T04:18:43;94118.09;;;16.66;55.52
56831;BME280;42713;42.676;23.352;2022-11-20T04:21:09;94115.94;;;16.68;55.71
56831;BME280;42713;42.676;23.352;2022-11-20T04:23:35;94107.81;;;16.64;56.06
56831;BME280;42713;42.676;23.352;2022-11-20T04:26:09;94094.97;;;16.72;55.86
56831;BME280;42713;42.676;23.352;2022-11-20T04:28:35;94106.81;;;16.74;54.73
56831;BME280;42713;42.676;23.352;2022-11-20T04:31:09;94115.06;;;16.73;55.39
56831;BME280;42713;42.676;23.352;2022-11-20T04:33:36;94109.47;;;16.74;55.48
56831;BME280;42713;42.676;23.352;2022-11-20T04:36:11;94119.38;;;16.69;55.63
56831;BME280;42713;42.676;23.352;2022-11-20T04:38:38;94120.63;;;16.71;55.46
56831;BME280;42713;42.676;23.352;2022-11-20T04:41:05;94131.41;;;16.75;56.10
56831;BME280;42713;42.676;23.352;2022-11-20T04:43:32;94108.00;;;16.68;56.95
56831;BME280;42713;42.676;23.352;2022-11-20T04:45:58;94110.06;;;16.71;56.83
56831;BME280;42713;42.676;23.352;2022-11-20T04:48:25;94100.56;;;16.70;56.47
56831;BME280;42713;42.676;23.352;2022-11-20T04:50:51;94099.91;;;16.64;57.01
56831;BME280;42713;42.676;23.352;2022-11-20T04:53:17;94104.06;;;16.65;57.36
56831;BME280;42713;42.676;23.352;2022-11-20T04:55:43;94094.00;;;16.68;57.36
56831;BME280;42713;42.676;23.352;2022-11-20T04:58:08;94094.31;;;16.66;57.26
56831;BME280;42713;42.676;23.352;2022-11-20T05:00:34;94086.88;;;16.68;56.18
56831;BME280;42713;42.676;23.352;2022-11-20T05:02:59;94093.72;;;16.69;56.57
56831;BME280;42713;42.676;23.352;2022-11-20T05:05:25;94080.50;;;16.69;57.23
56831;BME280;42713;42.676;23.352;2022-11-20T05:07:51;94064.91;;;16.68;57.15
56831;BME280;42713;42.676;23.352;2022-11-20T05:10:16;94086.38;;;16.66;57.18
56831;BME280;42713;42.676;23.352;2022-11-20T05:12:42;94081.38;;;16.64;56.88
56831;BME280;42713;42.676;23.352;2022-11-20T05:15:07;94088.72;;;16.68;57.02
56831;BME280;42713;42.676;23.352;2022-11-20T05:17:33;94064.41;;;16.65;57.23
56831;BME280;42713;42.676;23.352;2022-11-20T05:19:58;94064.72;;;16.64;57.44
56831;BME280;42713;42.676;23.352;2022-11-20T05:22:24;94075.88;;;16.61;57.70
56831;BME280;42713;42.676;23.352;2022-11-20T05:24:49;94061.13;;;16.60;58.09
56831;BME280;42713;42.676;23.352;2022-11-20T05:27:15;94056.31;;;16.62;57.86
56831;BME280;42713;42.676;23.352;2022-11-20T05:29:40;94049.44;;;16.61;58.27
56831;BME280;42713;42.676;23.352;2022-11-20T05:32:06;94055.84;;;16.60;58.10
56831;BME280;42713;42.676;23.352;2022-11-20T05:34:34;94056.03;;;16.63;59.06
56831;BME280;42713;42.676;23.352;2022-11-20T05:36:59;94067.69;;;16.62;60.10
56831;BME280;42713;42.676;23.352;2022-11-20T05:39:24;94075.88;;;16.61;60.71
56831;BME280;42713;42.676;23.352;2022-11-20T05:41:50;94082.75;;;16.62;60.82
56831;BME280;42713;42.676;23.352;2022-11-20T05:44:35;94067.19;;;16.60;61.41
56831;BME280;42713;42.676;23.352;2022-11-20T05:47:01;94068.25;;;16.59;61.52
56831;BME280;42713;42.676;23.352;2022-11-20T05:49:26;94067.00;;;16.57;62.09
56831;BME280;42713;42.676;23.352;2022-11-20T05:51:52;94071.47;;;16.56;62.66
56831;BME280;42713;42.676;23.352;2022-11-20T05:54:17;94062.91;;;16.51;62.61
56831;BME280;42713;42.676;23.352;2022-11-20T05:56:43;94067.09;;;16.52;62.91
56831;BME280;42713;42.676;23.352;2022-11-20T05:59:08;94064.25;;;16.48;63.32
56831;BME280;42713;42.676;23.352;2022-11-20T06:01:33;94076.69;;;16.47;63.02
56831;BME280;42713;42.676;23.352;2022-11-20T06:04:01;94085.22;;;16.44;62.76
56831;BME280;42713;42.676;23.352;2022-11-20T06:06:26;94068.09;;;16.42;62.60
56831;BME280;42713;42.676;23.352;2022-11-20T06:08:52;94061.22;;;16.41;63.16
56831;BME280;42713;42.676;23.352;2022-11-20T06:11:18;94064.44;;;16.38;63.07
56831;BME280;42713;42.676;23.352;2022-11-20T06:13:44;94077.97;;;16.36;62.61
56831;BME280;42713;42.676;23.352;2022-11-20T06:16:11;94082.50;;;16.36;62.57
56831;BME280;42713;42.676;23.352;2022-11-20T06:18:38;94076.72;;;16.33;62.84
56831;BME280;42713;42.676;23.352;2022-11-20T06:21:07;94063.50;;;16.33;62.85
56831;BME280;42713;42.676;23.352;2022-11-20T06:23:33;94075.63;;;16.34;62.85
56831;BME280;42713;42.676;23.352;2022-11-20T06:26:05;94082.75;;;16.34;62.61
56831;BME280;42713;42.676;23.352;2022-11-20T06:28:31;94096.28;;;16.32;62.87
56831;BME280;42713;42.676;23.352;2022-11-20T06:30:57;94099.88;;;16.37;62.63
56831;BME280;42713;42.676;23.352;2022-11-20T06:33:22;94097.53;;;16.35;62.91
56831;BME280;42713;42.676;23.352;2022-11-20T06:35:48;94087.34;;;16.42;62.68
56831;BME280;42713;42.676;23.352;2022-11-20T06:38:13;94076.97;;;16.46;62.30
56831;BME280;42713;42.676;23.352;2022-11-20T06:40:42;94083.06;;;16.46;61.87
56831;BME280;42713;42.676;23.352;2022-11-20T06:43:11;94081.69;;;16.49;62.01
56831;BME280;42713;42.676;23.352;2022-11-20T06:45:36;94091.38;;;16.54;61.62
56831;BME280;42713;42.676;23.352;2022-11-20T06:48:02;94100.56;;;16.56;61.38
56831;BME280;42713;42.676;23.352;2022-11-20T06:50:28;94095.59;;;16.55;61.53
56831;BME280;42713;42.676;23.352;2022-11-20T06:52:54;94088.63;;;16.59;61.28
56831;BME280;42713;42.676;23.352;2022-11-20T06:55:19;94102.03;;;16.62;61.09
56831;BME280;42713;42.676;23.352;2022-11-20T06:57:45;94111.81;;;16.62;61.30
56831;BME280;42713;42.676;23.352;2022-11-20T07:00:11;94109.69;;;16.64;61.25
56831;BME280;42713;42.676;23.352;2022-11-20T07:02:37;94105.06;;;16.70;60.59
56831;BME280;42713;42.676;23.352;2022-11-20T07:05:02;94116.91;;;16.72;60.54
56831;BME280;42713;42.676;23.352;2022-11-20T07:07:28;94110.53;;;16.73;60.60
56831;BME280;42713;42.676;23.352;2022-11-20T07:09:53;94114.44;;;16.76;60.93
56831;BME280;42713;42.676;23.352;2022-11-20T07:12:19;94117.41;;;16.74;60.07
56831;BME280;42713;42.676;23.352;2022-11-20T07:14:44;94118.66;;;16.77;59.87
56831;BME280;42713;42.676;23.352;2022-11-20T07:17:09;94113.09;;;16.78;60.09
56831;BME280;42713;42.676;23.352;2022-11-20T07:19:35;94117.09;;;16.76;60.00
56831;BME280;42713;42.676;23.352;2022-11-20T07:22:00;94121.63;;;16.75;59.91
56831;BME280;42713;42.676;23.352;2022-11-20T07:24:26;94126.59;;;16.77;59.97
56831;BME280;42713;42.676;23.352;2022-11-20T07:26:51;94123.19;;;16.76;59.99
56831;BME280;42713;42.676;23.352;2022-11-20T07:29:16;94128.97;;;16.78;59.23
56831;BME280;42713;42.676;23.352;2022-11-20T07:31:42;94133.19;;;16.79;59.39
56831;BME280;42713;42.676;23.352;2022-11-20T07:34:08;94128.97;;;16.78;59.74
56831;BME280;42713;42.676;23.352;2022-11-20T07:36:34;94119.16;;;16.79;59.73
56831;BME280;42713;42.676;23.352;2022-11-20T07:39:00;94121.50;;;16.80;59.31
56831;BME280;42713;42.676;23.352;2022-11-20T07:41:25;94124.13;;;16.80;59.77
56831;BME280;42713;42.676;23.352;2022-11-20T07:43:50;94121.50;;;16.80;59.39
56831;BME280;42713;42.676;23.352;2022-11-20T07:46:16;94121.50;;;16.80;59.19
56831;BME280;42713;42.676;23.352;2022-11-20T07:48:41;94125.72;;;16.81;58.79
56831;BME280;42713;42.676;23.352;2022-11-20T07:51:07;94120.41;;;16.81;60.05
56831;BME280;42713;42.676;23.352;2022-11-20T07:53:32;94126.69;;;16.86;60.45
56831;BME280;42713;42.676;23.352;2022-11-20T07:56:02;94131.41;;;16.89;60.66
56831;BME280;42713;42.676;23.352;2022-11-20T07:58:32;94130.78;;;16.92;59.71
56831;BME280;42713;42.676;23.352;2022-11-20T08:01:07;94129.22;;;16.91;59.34
56831;BME280;42713;42.676;23.352;2022-11-20T08:03:33;94123.38;;;16.94;58.28
56831;BME280;42713;42.676;23.352;2022-11-20T08:05:59;94123.94;;;16.91;58.69
56831;BME280;42713;42.676;23.352;2022-11-20T08:08:28;94126.88;;;16.89;58.79
56831;BME280;42713;42.676;23.352;2022-11-20T08:10:54;94133.44;;;16.92;58.69
56831;BME280;42713;42.676;23.352;2022-11-20T08:13:39;94120.72;;;16.94;58.43
56831;BME280;42713;42.676;23.352;2022-11-20T08:16:23;94117.31;;;16.93;58.59
56831;BME280;42713;42.676;23.352;2022-11-20T08:18:48;94110.66;;;16.96;58.39
56831;BME280;42713;42.676;23.352;2022-11-20T08:21:14;94103.47;;;16.96;58.22
56831;BME280;42713;42.676;23.352;2022-11-20T08:23:40;94104.09;;;16.93;58.36
56831;BME280;42713;42.676;23.352;2022-11-20T08:26:05;94117.78;;;16.95;58.52
56831;BME280;42713;42.676;23.352;2022-11-20T08:28:31;94114.84;;;16.97;58.16
56831;BME280;42713;42.676;23.352;2022-11-20T08:31:00;94130.72;;;16.97;58.40
56831;BME280;42713;42.676;23.352;2022-11-20T08:33:27;94134.94;;;16.98;58.01
56831;BME280;42713;42.676;23.352;2022-11-20T08:35:53;94139.16;;;16.99;57.93
56831;BME280;42713;42.676;23.352;2022-11-20T08:38:18;94134.34;;;17.01;58.46
56831;BME280;42713;42.676;23.352;2022-11-20T08:40:43;94129.84;;;17.02;58.07
56831;BME280;42713;42.676;23.352;2022-11-20T08:43:32;94132.97;;;17.04;58.04
56831;BME280;42713;42.676;23.352;2022-11-20T08:45:57;94144.22;;;16.95;57.55
56831;BME280;42713;42.676;23.352;2022-11-20T08:48:22;94153.16;;;16.86;57.78
56831;BME280;42713;42.676;23.352;2022-11-20T08:50:49;94159.31;;;16.81;58.40
56831;BME280;42713;42.676;23.352;2022-11-20T08:53:14;94175.97;;;16.81;58.31
56831;BME280;42713;42.676;23.352;2022-11-20T08:55:40;94178.53;;;16.87;58.53
56831;BME280;42713;42.676;23.352;2022-11-20T08:58:06;94176.56;;;16.92;58.88
56831;BME280;42713;42.676;23.352;2022-11-20T09:00:32;94154.41;;;17.02;58.94
56831;BME280;42713;42.676;23.352;2022-11-20T09:02:58;94170.97;;;17.08;59.51
56831;BME280;42713;42.676;23.352;2022-11-20T09:05:26;94171.06;;;17.17;60.14
56831;BME280;42713;42.676;23.352;2022-11-20T09:07:51;94172.50;;;17.23;59.53
56831;BME280;42713;42.676;23.352;2022-11-20T09:10:16;94168.31;;;17.22;60.01
56831;BME280;42713;42.676;23.352;2022-11-20T09:12:42;94169.56;;;17.24;60.07
56831;BME280;42713;42.676;23.352;2022-11-20T09:15:07;94178.88;;;17.22;61.05
56831;BME280;42713;42.676;23.352;2022-11-20T09:17:33;94181.53;;;17.22;61.24
56831;BME280;42713;42.676;23.352;2022-11-20T09:19:58;94184.19;;;17.22;61.91
56831;BME280;42713;42.676;23.352;2022-11-20T09:22:24;94171.84;;;17.17;62.97
56831;BME280;42713;42.676;23.352;2022-11-20T09:24:49;94183.94;;;17.09;65.20
56831;BME280;42713;42.676;23.352;2022-11-20T09:27:15;94185.66;;;17.00;61.95
56831;BME280;42713;42.676;23.352;2022-11-20T09:29:45;94194.22;;;16.97;62.58
56831;BME280;42713;42.676;23.352;2022-11-20T09:32:11;94172.44;;;16.86;62.42
56831;BME280;42713;42.676;23.352;2022-11-20T09:34:36;94182.13;;;16.77;59.91
56831;BME280;42713;42.676;23.352;2022-11-20T09:37:01;94169.72;;;16.63;62.74
56831;BME280;42713;42.676;23.352;2022-11-20T09:39:27;94164.22;;;16.60;64.06
56831;BME280;42713;42.676;23.352;2022-11-20T09:45:05;94141.78;;;16.57;65.80
56831;BME280;42713;42.676;23.352;2022-11-20T09:50:45;94139.75;;;16.68;69.42
56831;BME280;42713;42.676;23.352;2022-11-20T09:53:55;94133.28;;;16.74;70.56
56831;BME280;42713;42.676;23.352;2022-11-20T09:56:23;94120.53;;;16.76;70.19
56831;BME280;42713;42.676;23.352;2022-11-20T09:58:50;94120.72;;;16.80;72.55
56831;BME280;42713;42.676;23.352;2022-11-20T10:01:19;94127.28;;;16.83;71.22
56831;BME280;42713;42.676;23.352;2022-11-20T10:03:58;94119.75;;;16.90;70.62
56831;BME280;42713;42.676;23.352;2022-11-20T10:07:37;94118.88;;;16.94;70.26
56831;BME280;42713;42.676;23.352;2022-11-20T10:09:50;94131.59;;;16.92;69.67
56831;BME280;42713;42.676;23.352;2022-11-20T10:12:22;94131.81;;;16.82;69.50
56831;BME280;42713;42.676;23.352;2022-11-20T10:15:16;94125.31;;;16.88;71.57
56831;BME280;42713;42.676;23.352;2022-11-20T10:25:56;94092.00;;;16.87;68.88
56831;BME280;42713;42.676;23.352;2022-11-20T10:28:29;94092.91;;;16.83;68.29
56831;BME280;42713;42.676;23.352;2022-11-20T10:31:08;94098.13;;;16.74;68.00
56831;BME280;42713;42.676;23.352;2022-11-20T10:33:40;94099.09;;;16.64;67.60
56831;BME280;42713;42.676;23.352;2022-11-20T10:36:26;94104.06;;;16.65;66.92
56831;BME280;42713;42.676;23.352;2022-11-20T10:39:00;94110.94;;;16.67;65.68
56831;BME280;42713;42.676;23.352;2022-11-20T10:41:40;94108.13;;;16.35;68.69
56831;BME280;42713;42.676;23.352;2022-11-20T10:44:15;94113.50;;;16.16;70.39
56831;BME280;42713;42.676;23.352;2022-11-20T10:47:00;94118.84;;;15.97;70.53
56831;BME280;42713;42.676;23.352;2022-11-20T10:49:26;94117.50;;;15.80;71.17
56831;BME280;42713;42.676;23.352;2022-11-20T10:57:37;94120.72;;;15.96;72.55
56831;BME280;42713;42.676;23.352;2022-11-20T11:00:12;94113.50;;;15.83;73.65
56831;BME280;42713;42.676;23.352;2022-11-20T11:02:42;94122.91;;;15.89;74.17
56831;BME280;42713;42.676;23.352;2022-11-20T11:05:39;94122.06;;;15.94;74.23
56831;BME280;42713;42.676;23.352;2022-11-20T11:08:15;94147.75;;;15.88;75.56
56831;BME280;42713;42.676;23.352;2022-11-20T11:11:00;94167.91;;;15.84;77.21
56831;BME280;42713;42.676;23.352;2022-11-20T11:13:30;94167.41;;;15.63;77.78
56831;BME280;42713;42.676;23.352;2022-11-20T11:15:57;94190.69;;;15.22;80.51
56831;BME280;42713;42.676;23.352;2022-11-20T11:18:31;94212.41;;;14.90;82.48
56831;BME280;42713;42.676;23.352;2022-11-20T11:21:00;94207.75;;;14.57;73.73
56831;BME280;42713;42.676;23.352;2022-11-20T11:25:59;94182.38;;;14.13;72.90
56831;BME280;42713;42.676;23.352;2022-11-20T11:28:26;94181.41;;;13.98;73.53
56831;BME280;42713;42.676;23.352;2022-11-20T11:30:53;94144.41;;;13.90;73.84
56831;BME280;42713;42.676;23.352;2022-11-20T11:33:25;94162.91;;;13.79;73.24
56831;BME280;42713;42.676;23.352;2022-11-20T11:38:41;94164.00;;;13.73;74.61
56831;BME280;42713;42.676;23.352;2022-11-20T11:41:15;94162.97;;;13.69;75.99
56831;BME280;42713;42.676;23.352;2022-11-20T11:43:51;94150.59;;;13.69;74.22
56831;BME280;42713;42.676;23.352;2022-11-20T11:46:36;94136.34;;;13.76;72.32
56831;BME280;42713;42.676;23.352;2022-11-20T11:51:45;94150.06;;;13.73;74.64
56831;BME280;42713;42.676;23.352;2022-11-20T11:54:45;94152.75;;;13.62;74.19
56831;BME280;42713;42.676;23.352;2022-11-20T12:00:20;94160.13;;;13.65;73.55
56831;BME280;42713;42.676;23.352;2022-11-20T12:05:30;94142.53;;;13.61;74.66
56831;BME280;42713;42.676;23.352;2022-11-20T12:08:03;94140.94;;;13.60;70.98
56831;BME280;42713;42.676;23.352;2022-11-20T12:10:54;94142.78;;;13.59;72.31
56831;BME280;42713;42.676;23.352;2022-11-20T12:16:04;94133.31;;;13.58;73.73
56831;BME280;42713;42.676;23.352;2022-11-20T12:18:30;94125.94;;;13.60;72.82
56831;BME280;42713;42.676;23.352;2022-11-20T12:27:28;94150.56;;;13.35;71.99
56831;BME280;42713;42.676;23.352;2022-11-20T12:30:16;94143.31;;;13.16;73.19
56831;BME280;42713;42.676;23.352;2022-11-20T12:36:06;94167.53;;;13.08;74.65
56831;BME280;42713;42.676;23.352;2022-11-20T12:38:45;94132.03;;;13.16;73.50
56831;BME280;42713;42.676;23.352;2022-11-20T12:51:06;94063.47;;;13.42;75.41
56831;BME280;42713;42.676;23.352;2022-11-20T12:56:42;94083.53;;;13.67;80.98
56831;BME280;42713;42.676;23.352;2022-11-20T13:02:00;94088.47;;;13.74;81.36
56831;BME280;42713;42.676;23.352;2022-11-20T13:07:07;94068.66;;;13.52;80.17
56831;BME280;42713;42.676;23.352;2022-11-20T13:09:36;94050.56;;;13.45;80.32
56831;BME280;42713;42.676;23.352;2022-11-20T13:15:08;94060.56;;;13.43;80.41
56831;BME280;42713;42.676;23.352;2022-11-20T13:20:15;94119.78;;;13.35;80.40
56831;BME280;42713;42.676;23.352;2022-11-20T13:22:47;94106.47;;;13.21;78.82
56831;BME280;42713;42.676;23.352;2022-11-20T13:27:55;94050.88;;;12.99;79.95
56831;BME280;42713;42.676;23.352;2022-11-20T13:30:22;94069.31;;;12.93;82.35
56831;BME280;42713;42.676;23.352;2022-11-20T13:33:08;94135.56;;;12.90;81.74
56831;BME280;42713;42.676;23.352;2022-11-20T13:35:41;94147.66;;;12.86;79.91
56831;BME280;42713;42.676;23.352;2022-11-20T13:38:08;94106.94;;;12.84;81.43
56831;BME280;42713;42.676;23.352;2022-11-20T13:40:56;94091.19;;;12.84;82.26
56831;BME280;42713;42.676;23.352;2022-11-20T13:43:36;94115.06;;;12.87;81.23
56831;BME280;42713;42.676;23.352;2022-11-20T13:46:05;94101.16;;;12.87;82.79
56831;BME280;42713;42.676;23.352;2022-11-20T13:48:46;94086.16;;;12.92;83.10
56831;BME280;42713;42.676;23.352;2022-11-20T14:01:45;94150.19;;;13.12;83.18
56831;BME280;42713;42.676;23.352;2022-11-20T14:04:17;94124.63;;;13.18;83.12
56831;BME280;42713;42.676;23.352;2022-11-20T14:06:45;94116.72;;;13.23;84.17
56831;BME280;42713;42.676;23.352;2022-11-20T14:09:24;94134.31;;;13.28;84.13
56831;BME280;42713;42.676;23.352;2022-11-20T14:11:50;94121.66;;;13.30;82.91
56831;BME280;42713;42.676;23.352;2022-11-20T14:14:21;94111.91;;;13.35;84.07
56831;BME280;42713;42.676;23.352;2022-11-20T14:16:48;94111.34;;;13.38;85.39
56831;BME280;42713;42.676;23.352;2022-11-20T14:19:26;94098.22;;;13.33;83.88
56831;BME280;42713;42.676;23.352;2022-11-20T14:22:24;94106.13;;;13.33;85.05
56831;BME280;42713;42.676;23.352;2022-11-20T14:27:38;94103.78;;;13.32;84.51
56831;BME280;42713;42.676;23.352;2022-11-20T14:30:06;94105.59;;;13.31;84.71
56831;BME280;42713;42.676;23.352;2022-11-20T14:32:37;94108.47;;;13.35;85.38